createdAt,value
2022-09-23T00:00:07.036Z,2.89
2022-09-23T00:05:14.754Z,2.88
2022-09-23T00:10:22.669Z,2.88
2022-09-23T00:15:28.952Z,2.89
2022-09-23T00:20:36.105Z,2.89
2022-09-23T00:25:45.117Z,2.89
2022-09-23T00:30:52.607Z,2.89
2022-09-23T00:36:00.002Z,2.89
2022-09-23T00:41:07.750Z,2.89
2022-09-23T00:46:15.285Z,2.89
2022-09-23T00:51:21.868Z,2.88
2022-09-23T00:56:29.620Z,2.89
2022-09-23T01:01:37.821Z,2.88
2022-09-23T01:06:44.733Z,2.89
2022-09-23T01:11:53.565Z,2.88
2022-09-23T01:17:01.670Z,2.88
2022-09-23T01:22:08.661Z,2.89
2022-09-23T01:27:15.506Z,2.87
2022-09-23T01:32:23.334Z,2.88
2022-09-23T01:37:40.329Z,2.88
2022-09-23T01:42:47.775Z,2.88
2022-09-23T01:47:56.267Z,2.88
2022-09-23T01:53:04.784Z,2.88
2022-09-23T01:58:12.124Z,2.88
2022-09-23T02:03:20.093Z,2.88
2022-09-23T02:08:28.470Z,2.89
2022-09-23T02:13:35.672Z,2.87
2022-09-23T02:18:44.046Z,2.88
2022-09-23T02:23:51.324Z,2.88
2022-09-23T02:28:59.076Z,2.88
2022-09-23T02:34:08.055Z,2.87
2022-09-23T02:39:17.019Z,2.89
2022-09-23T02:44:24.749Z,2.87
2022-09-23T02:49:40.745Z,2.87
2022-09-23T02:54:47.943Z,2.88
2022-09-23T02:59:55.768Z,2.87
2022-09-23T03:05:03.669Z,2.88
2022-09-23T03:10:11.453Z,2.88
2022-09-23T03:15:19.291Z,2.88
2022-09-23T03:20:27.449Z,2.88
2022-09-23T03:25:37.364Z,2.88
2022-09-23T03:30:45.327Z,2.88
2022-09-23T03:35:52.130Z,2.88
2022-09-23T03:41:00.408Z,2.88
2022-09-23T03:46:09.153Z,2.88
2022-09-23T03:51:17.371Z,2.88
2022-09-23T03:56:24.590Z,2.87
2022-09-23T04:01:32.539Z,2.88
2022-09-23T04:06:39.673Z,2.88
2022-09-23T04:11:46.869Z,2.88
2022-09-23T04:17:03.336Z,2.88
2022-09-23T04:22:10.811Z,2.87
2022-09-23T04:27:18.263Z,2.87
2022-09-23T04:32:25.217Z,2.87
2022-09-23T04:37:33.014Z,2.87
2022-09-23T04:42:41.470Z,2.87
2022-09-23T04:47:48.911Z,2.88
2022-09-23T04:52:56.579Z,2.87
2022-09-23T04:58:03.131Z,2.88
2022-09-23T05:03:11.364Z,2.87
2022-09-23T05:08:20.070Z,2.88
2022-09-23T05:13:28.459Z,2.88
2022-09-23T05:18:35.819Z,2.88
2022-09-23T05:23:44.196Z,2.89
2022-09-23T05:28:52.602Z,2.88
2022-09-23T05:34:00.576Z,2.88
2022-09-23T05:39:08.363Z,2.88
2022-09-23T05:44:15.793Z,2.87
2022-09-23T05:49:25.049Z,2.87
2022-09-23T05:54:33.374Z,2.88
2022-09-23T05:59:40.767Z,2.88
2022-09-23T06:04:48.372Z,2.89
2022-09-23T06:09:57.778Z,2.9
2022-09-23T06:15:06.363Z,2.9
2022-09-23T06:20:14.336Z,2.91
2022-09-23T06:25:22.539Z,2.91
2022-09-23T06:30:32.260Z,2.92
2022-09-23T06:35:39.195Z,2.92
2022-09-23T06:40:47.026Z,2.93
2022-09-23T06:45:54.819Z,2.91
2022-09-23T06:51:02.865Z,2.93
2022-09-23T06:56:11.885Z,2.93
2022-09-23T07:01:18.992Z,2.92
2022-09-23T07:06:26.338Z,2.93
2022-09-23T07:11:34.244Z,2.93
2022-09-23T07:16:41.218Z,2.93
2022-09-23T07:21:48.943Z,2.94
2022-09-23T07:26:56.872Z,2.93
2022-09-23T07:32:04.310Z,2.93
2022-09-23T07:37:11.966Z,2.93
2022-09-23T07:42:19.769Z,2.95
2022-09-23T07:47:26.315Z,2.95
2022-09-23T07:52:34.246Z,2.94
2022-09-23T07:57:42.511Z,2.95
2022-09-23T08:02:50.640Z,2.94
2022-09-23T08:07:57.976Z,2.94
2022-09-23T08:13:06.070Z,2.95
2022-09-23T08:18:14.428Z,2.95
2022-09-23T08:23:22.377Z,2.95
2022-09-23T08:28:30.587Z,2.95
2022-09-23T08:33:38.829Z,2.95
2022-09-23T08:38:46.669Z,2.95
2022-09-23T08:43:54.341Z,2.95
2022-09-23T08:49:01.753Z,2.97
2022-09-23T08:54:09.384Z,2.95
2022-09-23T08:59:16.785Z,2.95
2022-09-23T09:04:24.066Z,2.95
2022-09-23T09:09:31.244Z,2.95
2022-09-23T09:14:38.978Z,2.95
2022-09-23T09:19:46.829Z,2.97
2022-09-23T09:24:56.334Z,2.95
2022-09-23T09:30:04.182Z,2.95
2022-09-23T09:35:12.190Z,2.95
2022-09-23T09:40:19.532Z,2.94
2022-09-23T09:45:27.659Z,2.95
2022-09-23T09:50:36.049Z,2.95
2022-09-23T09:55:43.672Z,2.96
2022-09-23T10:00:52.343Z,2.96
2022-09-23T10:06:00.119Z,2.96
2022-09-23T10:11:07.836Z,2.97
2022-09-23T10:16:16.124Z,2.96
2022-09-23T10:21:25.019Z,2.96
2022-09-23T10:26:32.522Z,2.96
2022-09-23T10:31:40.083Z,2.96
2022-09-23T10:36:48.086Z,2.96
2022-09-23T10:41:54.757Z,2.96
2022-09-23T10:47:01.324Z,2.96
2022-09-23T10:52:09.286Z,2.97
2022-09-23T10:57:16.482Z,2.96
2022-09-23T11:02:25.237Z,2.97
2022-09-23T11:07:33.331Z,2.96
2022-09-23T11:12:39.904Z,2.96
2022-09-23T11:17:47.740Z,2.96
2022-09-23T11:22:55.516Z,2.96
2022-09-23T11:28:03.372Z,2.96
2022-09-23T11:33:11.261Z,2.96
2022-09-23T11:38:19.713Z,2.96
2022-09-23T11:43:27.769Z,2.96
2022-09-23T11:48:34.836Z,2.97
2022-09-23T11:53:42.834Z,2.95
2022-09-23T11:58:50.474Z,2.97
2022-09-23T12:03:59.705Z,2.96
2022-09-23T12:09:07.489Z,2.96
2022-09-23T12:14:13.996Z,2.95
2022-09-23T12:19:22.528Z,2.97
2022-09-23T12:24:31.544Z,2.97
2022-09-23T12:29:42.273Z,2.97
2022-09-23T12:34:49.879Z,2.96
2022-09-23T12:39:56.384Z,2.96
2022-09-23T12:45:05.184Z,2.96
2022-09-23T12:50:12.726Z,2.95
2022-09-23T12:55:21.702Z,2.96
2022-09-23T13:00:29.399Z,2.96
2022-09-23T13:05:37.561Z,2.95
2022-09-23T13:10:44.765Z,2.95
2022-09-23T13:15:52.245Z,2.96
2022-09-23T13:20:59.175Z,2.95
2022-09-23T13:26:07.172Z,2.96
2022-09-23T13:31:15.439Z,2.96
2022-09-23T13:36:23.781Z,2.97
2022-09-23T13:41:31.632Z,2.95
2022-09-23T13:46:39.027Z,2.96
2022-09-23T13:51:47.184Z,2.97
2022-09-23T13:56:54.685Z,2.95
2022-09-23T14:02:02.618Z,2.96
2022-09-23T14:07:09.741Z,2.96
2022-09-23T14:12:18.028Z,2.95
2022-09-23T14:17:25.977Z,2.96
2022-09-23T14:22:32.524Z,2.96
2022-09-23T14:27:40.900Z,2.96
2022-09-23T14:32:47.899Z,2.96
2022-09-23T14:37:56.207Z,2.96
2022-09-23T14:43:04.607Z,2.95
2022-09-23T14:48:12.144Z,2.95
2022-09-23T14:53:19.023Z,2.97
2022-09-23T14:58:26.648Z,2.95
2022-09-23T15:03:33.417Z,2.96
2022-09-23T15:08:41.837Z,2.96
2022-09-23T15:13:50.726Z,2.95
2022-09-23T15:18:59.586Z,2.95
2022-09-23T15:24:06.655Z,2.95
2022-09-23T15:29:13.857Z,2.95
2022-09-23T15:34:21.049Z,2.95
2022-09-23T15:39:28.482Z,2.95
2022-09-23T15:44:36.780Z,2.97
2022-09-23T15:49:44.936Z,2.95
2022-09-23T15:54:52.830Z,2.94
2022-09-23T15:59:59.615Z,2.95
2022-09-23T16:05:07.068Z,2.94
2022-09-23T16:10:14.598Z,2.94
2022-09-23T16:15:21.678Z,2.94
2022-09-23T16:20:27.810Z,2.95
2022-09-23T16:25:35.623Z,2.95
2022-09-23T16:30:43.097Z,2.94
2022-09-23T16:35:50.658Z,2.94
2022-09-23T16:40:58.500Z,2.95
2022-09-23T16:46:06.340Z,2.94
2022-09-23T16:51:14.555Z,2.93
2022-09-23T16:56:22.078Z,2.95
2022-09-23T17:01:30.584Z,2.93
2022-09-23T17:06:37.703Z,2.94
2022-09-23T17:11:50.030Z,2.93
2022-09-23T17:16:57.220Z,2.92
2022-09-23T17:22:05.220Z,2.92
2022-09-23T17:27:12.273Z,2.93
2022-09-23T17:32:19.470Z,2.93
2022-09-23T17:37:27.318Z,2.92
2022-09-23T17:42:35.142Z,2.92
2022-09-23T17:47:42.339Z,2.91
2022-09-23T17:52:49.748Z,2.92
2022-09-23T17:57:56.757Z,2.92
2022-09-23T18:03:04.772Z,2.92
2022-09-23T18:08:12.542Z,2.92
2022-09-23T18:13:19.628Z,2.93
2022-09-23T18:18:28.010Z,2.91
2022-09-23T18:23:35.993Z,2.92
2022-09-23T18:28:44.182Z,2.92
2022-09-23T18:33:50.986Z,2.92
2022-09-23T18:38:58.924Z,2.92
2022-09-23T18:44:06.618Z,2.91
2022-09-23T18:49:13.944Z,2.92
2022-09-23T18:54:22.889Z,2.91
2022-09-23T18:59:30.197Z,2.91
2022-09-23T19:04:37.433Z,2.91
2022-09-23T19:09:45.137Z,2.92
2022-09-23T19:14:53.120Z,2.92
2022-09-23T19:20:00.914Z,2.91
2022-09-23T19:25:09.326Z,2.91
2022-09-23T19:30:17.284Z,2.91
2022-09-23T19:35:25.438Z,2.91
2022-09-23T19:40:39.312Z,2.9
2022-09-23T19:45:48.434Z,2.91
2022-09-23T19:51:17.758Z,2.91
2022-09-23T19:56:25.921Z,2.9
2022-09-23T20:01:32.481Z,2.91
2022-09-23T20:06:39.681Z,2.91
2022-09-23T20:11:48.398Z,2.9
2022-09-23T20:16:56.726Z,2.9
2022-09-23T20:22:04.440Z,2.9
2022-09-23T20:27:11.637Z,2.9
2022-09-23T20:32:18.910Z,2.9
2022-09-23T20:37:27.851Z,2.9
2022-09-23T20:42:36.349Z,2.9
2022-09-23T20:47:43.668Z,2.9
2022-09-23T20:53:06.135Z,2.9
2022-09-23T20:58:13.630Z,2.9
2022-09-23T21:03:20.757Z,2.9
2022-09-23T21:08:29.431Z,2.9
2022-09-23T21:13:36.919Z,2.89
2022-09-23T21:18:45.152Z,2.89
2022-09-23T21:23:52.613Z,2.9
2022-09-23T21:29:00.968Z,2.89
2022-09-23T21:34:09.774Z,2.91
2022-09-23T21:39:17.376Z,2.89
2022-09-23T21:44:24.596Z,2.89
2022-09-23T21:49:33.089Z,2.89
2022-09-23T21:54:41.440Z,2.91
2022-09-23T21:59:49.070Z,2.9
2022-09-23T22:05:03.370Z,2.89
2022-09-23T22:10:11.399Z,2.9
2022-09-23T22:15:17.383Z,2.89
2022-09-23T22:20:25.700Z,2.91
2022-09-23T22:25:33.678Z,2.9
2022-09-23T22:30:41.950Z,2.9
2022-09-23T22:35:49.442Z,2.9
2022-09-23T22:40:56.317Z,2.9
2022-09-23T22:46:06.869Z,2.89
2022-09-23T22:51:15.466Z,2.89
2022-09-23T22:56:22.674Z,2.89
2022-09-23T23:01:31.222Z,2.89
2022-09-23T23:06:40.080Z,2.91
2022-09-23T23:11:46.832Z,2.89
2022-09-23T23:16:54.195Z,2.9
2022-09-23T23:22:01.971Z,2.89
2022-09-23T23:27:10.209Z,2.9
2022-09-23T23:32:18.718Z,2.89
2022-09-23T23:37:26.637Z,2.9
2022-09-23T23:42:34.517Z,2.89
2022-09-23T23:47:42.304Z,2.9
2022-09-23T23:52:50.550Z,2.9
2022-09-23T23:57:57.409Z,2.89
